createdAt,value
2019-03-24T00:00:07.057Z,121.02
2019-03-24T00:01:41.042Z,119.25
2019-03-24T00:03:03.205Z,110.72
2019-03-24T00:04:19.769Z,112.10
2019-03-24T00:05:37.141Z,116.57
2019-03-24T00:06:54.421Z,111.57
2019-03-24T00:08:11.034Z,117.77
2019-03-24T00:09:27.383Z,116.88
2019-03-24T00:10:44.043Z,109.15
2019-03-24T00:12:00.593Z,111.55
2019-03-24T00:13:17.105Z,127.65
2019-03-24T00:14:34.338Z,113.62
2019-03-24T00:15:51.516Z,121.13
2019-03-24T00:17:07.971Z,123.25
2019-03-24T00:18:25.187Z,116.62
2019-03-24T00:19:41.776Z,119.93
2019-03-24T00:20:58.730Z,120.22
2019-03-24T00:22:15.863Z,126.42
2019-03-24T00:23:33.101Z,135.70
2019-03-24T00:24:48.541Z,124.02
2019-03-24T00:26:12.928Z,115.35
2019-03-24T00:27:37.328Z,119.67
2019-03-24T00:28:54.202Z,136.22
2019-03-24T00:30:10.534Z,113.10
2019-03-24T00:31:26.940Z,126.67
2019-03-24T00:32:43.381Z,127.75
2019-03-24T00:33:59.700Z,133.72
2019-03-24T00:35:16.267Z,126.20
2019-03-24T00:36:32.843Z,124.75
2019-03-24T00:37:50.147Z,131.05
2019-03-24T00:39:06.650Z,125.72
2019-03-24T00:40:23.633Z,126.18
2019-03-24T00:41:40.812Z,127.70
2019-03-24T00:42:58.250Z,125.40
2019-03-24T00:44:15.325Z,137.37
2019-03-24T00:45:36.865Z,131.10
2019-03-24T00:46:50.710Z,133.32
2019-03-24T00:48:07.530Z,121.85
2019-03-24T00:49:24.609Z,134.18
2019-03-24T00:50:41.928Z,126.38
2019-03-24T00:51:58.693Z,124.00
2019-03-24T00:53:15.285Z,140.75
2019-03-24T00:54:32.233Z,132.63
2019-03-24T00:55:48.772Z,142.45
2019-03-24T00:57:05.076Z,125.55
2019-03-24T00:58:21.957Z,128.32
2019-03-24T00:59:38.395Z,135.97
2019-03-24T01:00:55.077Z,140.30
2019-03-24T01:02:11.557Z,135.10
2019-03-24T01:03:28.178Z,138.35
2019-03-24T01:04:45.413Z,138.25
2019-03-24T01:06:02.022Z,131.20
2019-03-24T01:07:22.552Z,135.00
2019-03-24T01:08:46.928Z,142.77
2019-03-24T01:10:03.632Z,128.97
2019-03-24T01:11:20.793Z,125.62
2019-03-24T01:12:37.210Z,137.75
2019-03-24T01:13:53.840Z,133.80
2019-03-24T01:15:11.044Z,137.65
2019-03-24T01:16:28.241Z,129.70
2019-03-24T01:17:44.589Z,136.22
2019-03-24T01:19:02.655Z,131.20
2019-03-24T01:20:19.837Z,131.45
2019-03-24T01:21:36.301Z,131.43
2019-03-24T01:22:53.278Z,135.37
2019-03-24T01:24:09.805Z,129.35
2019-03-24T01:25:26.301Z,135.05
2019-03-24T01:26:42.587Z,138.45
2019-03-24T01:27:59.644Z,132.80
2019-03-24T01:29:16.191Z,130.00
2019-03-24T01:30:33.464Z,140.10
2019-03-24T01:31:50.669Z,128.55
2019-03-24T01:33:07.331Z,139.05
2019-03-24T01:34:23.837Z,133.80
2019-03-24T01:35:40.739Z,128.70
2019-03-24T01:36:57.225Z,137.45
2019-03-24T01:38:13.544Z,132.43
2019-03-24T01:39:30.400Z,135.95
2019-03-24T01:40:46.888Z,135.78
2019-03-24T01:42:03.372Z,140.35
2019-03-24T01:43:19.949Z,134.82
2019-03-24T01:44:36.784Z,144.00
2019-03-24T01:45:58.430Z,152.17
2019-03-24T01:47:10.398Z,141.03
2019-03-24T01:48:26.845Z,143.17
2019-03-24T01:49:43.709Z,138.57
2019-03-24T01:51:00.051Z,143.85
2019-03-24T01:52:16.725Z,144.75
2019-03-24T01:53:33.628Z,144.70
2019-03-24T01:54:50.655Z,139.35
2019-03-24T01:56:07.174Z,142.28
2019-03-24T01:57:23.496Z,140.22
2019-03-24T01:58:40.522Z,137.18
2019-03-24T01:59:56.833Z,135.52
2019-03-24T02:01:13.505Z,141.90
2019-03-24T02:02:29.897Z,134.43
2019-03-24T02:03:46.424Z,139.75
2019-03-24T02:05:02.935Z,128.65
2019-03-24T02:06:19.378Z,130.60
2019-03-24T02:07:35.736Z,146.00
2019-03-24T02:08:52.961Z,145.32
2019-03-24T02:10:09.482Z,150.35
2019-03-24T02:11:25.806Z,133.37
2019-03-24T02:12:42.320Z,159.85
2019-03-24T02:13:59.497Z,159.05
2019-03-24T02:15:15.969Z,150.55
2019-03-24T02:16:32.803Z,142.82
2019-03-24T02:17:49.393Z,149.68
2019-03-24T02:19:06.060Z,146.28
2019-03-24T02:20:22.568Z,151.05
2019-03-24T02:21:38.028Z,154.18
2019-03-24T02:23:02.394Z,155.50
2019-03-24T02:24:18.890Z,145.40
2019-03-24T02:25:35.595Z,150.38
2019-03-24T02:26:51.970Z,151.45
2019-03-24T02:28:08.981Z,149.93
2019-03-24T02:29:25.555Z,148.10
2019-03-24T02:30:42.805Z,151.55
2019-03-24T02:31:59.226Z,149.05
2019-03-24T02:33:15.769Z,158.97
2019-03-24T02:34:33.072Z,155.05
2019-03-24T02:35:49.731Z,146.55
2019-03-24T02:37:06.979Z,154.75
2019-03-24T02:38:23.569Z,146.32
2019-03-24T02:39:40.301Z,139.18
2019-03-24T02:40:57.100Z,143.75
2019-03-24T02:42:14.146Z,147.78
2019-03-24T02:43:30.529Z,145.43
2019-03-24T02:44:46.901Z,135.88
2019-03-24T02:46:03.393Z,143.65
2019-03-24T02:47:19.804Z,144.20
2019-03-24T02:48:36.337Z,154.82
2019-03-24T02:49:53.555Z,142.55
2019-03-24T02:51:10.024Z,144.20
2019-03-24T02:52:26.405Z,145.62
2019-03-24T02:53:43.671Z,145.15
2019-03-24T02:55:00.390Z,139.52
2019-03-24T02:56:16.934Z,155.45
2019-03-24T02:57:33.365Z,153.05
2019-03-24T02:58:50.159Z,144.85
2019-03-24T03:00:08.095Z,152.53
2019-03-24T03:01:27.665Z,149.72
2019-03-24T03:02:44.546Z,150.12
2019-03-24T03:04:01.058Z,142.50
2019-03-24T03:05:17.619Z,148.80
2019-03-24T03:06:34.248Z,142.20
2019-03-24T03:07:50.711Z,142.75
2019-03-24T03:09:07.445Z,138.95
2019-03-24T03:10:24.045Z,150.60
2019-03-24T03:11:41.455Z,147.98
2019-03-24T03:12:57.826Z,146.70
2019-03-24T03:14:14.186Z,143.90
2019-03-24T03:15:30.661Z,146.85
2019-03-24T03:16:47.044Z,139.97
2019-03-24T03:18:03.583Z,140.45
2019-03-24T03:19:19.933Z,145.45
2019-03-24T03:20:37.007Z,141.12
2019-03-24T03:21:53.485Z,130.63
2019-03-24T03:23:10.723Z,135.63
2019-03-24T03:24:27.085Z,129.40
2019-03-24T03:25:44.149Z,138.52
2019-03-24T03:27:00.485Z,135.52
2019-03-24T03:28:17.382Z,131.07
2019-03-24T03:29:34.154Z,132.82
2019-03-24T03:30:51.617Z,142.03
2019-03-24T03:32:08.258Z,144.95
2019-03-24T03:33:24.759Z,130.95
2019-03-24T03:34:41.086Z,138.55
2019-03-24T03:35:58.150Z,145.68
2019-03-24T03:37:14.671Z,135.95
2019-03-24T03:38:31.174Z,143.85
2019-03-24T03:39:48.070Z,138.60
2019-03-24T03:41:04.517Z,135.88
2019-03-24T03:42:20.969Z,137.00
2019-03-24T03:43:37.261Z,144.80
2019-03-24T03:44:54.020Z,140.10
2019-03-24T03:46:10.387Z,143.15
2019-03-24T03:47:27.498Z,142.20
2019-03-24T03:48:43.897Z,125.87
2019-03-24T03:50:01.062Z,142.57
2019-03-24T03:51:17.535Z,140.12
2019-03-24T03:52:34.218Z,136.68
2019-03-24T03:53:50.625Z,140.73
2019-03-24T03:55:07.257Z,130.85
2019-03-24T03:56:23.846Z,129.10
2019-03-24T03:57:40.229Z,130.35
2019-03-24T03:58:56.633Z,129.85
2019-03-24T04:00:13.158Z,144.72
2019-03-24T04:01:30.181Z,133.05
2019-03-24T04:02:47.258Z,135.35
2019-03-24T04:04:03.754Z,126.45
2019-03-24T04:05:19.245Z,132.65
2019-03-24T04:06:43.605Z,110.28
2019-03-24T04:08:00.358Z,130.90
2019-03-24T04:09:17.304Z,134.27
2019-03-24T04:10:33.720Z,125.58
2019-03-24T04:11:50.239Z,129.40
2019-03-24T04:13:06.668Z,121.62
2019-03-24T04:14:23.533Z,126.05
2019-03-24T04:15:39.041Z,128.57
2019-03-24T04:18:39.915Z,130.90
2019-03-24T04:19:56.641Z,137.57
2019-03-24T04:21:13.327Z,140.18
2019-03-24T04:22:30.476Z,138.15
2019-03-24T04:23:47.089Z,145.32
2019-03-24T04:25:03.811Z,137.15
2019-03-24T04:26:21.273Z,146.82
2019-03-24T04:27:37.621Z,149.05
2019-03-24T04:28:54.250Z,136.18
2019-03-24T04:30:11.353Z,141.95
2019-03-24T04:31:28.092Z,155.07
2019-03-24T04:32:44.494Z,152.82
2019-03-24T04:34:01.009Z,150.00
2019-03-24T04:35:17.379Z,146.18
2019-03-24T04:36:33.891Z,135.72
2019-03-24T04:37:51.109Z,157.52
2019-03-24T04:39:07.650Z,145.68
2019-03-24T04:40:24.090Z,147.43
2019-03-24T04:41:40.589Z,153.00
2019-03-24T04:42:57.052Z,157.85
2019-03-24T04:44:13.488Z,142.72
2019-03-24T04:45:29.837Z,137.70
2019-03-24T04:46:46.219Z,144.80
2019-03-24T04:48:02.540Z,144.45
2019-03-24T04:49:19.186Z,141.97
2019-03-24T04:50:35.649Z,146.87
2019-03-24T04:51:52.017Z,156.40
2019-03-24T04:53:09.048Z,155.55
2019-03-24T04:54:25.816Z,175.68
2019-03-24T04:55:44.992Z,147.53
2019-03-24T04:57:01.825Z,148.35
2019-03-24T04:58:18.297Z,165.52
2019-03-24T04:59:34.604Z,155.10
2019-03-24T05:00:51.496Z,159.18
2019-03-24T05:02:08.719Z,164.28
2019-03-24T05:03:25.081Z,163.40
2019-03-24T05:04:41.556Z,171.53
2019-03-24T05:05:58.121Z,153.85
2019-03-24T05:07:15.359Z,165.10
2019-03-24T05:08:32.097Z,160.97
2019-03-24T05:09:48.944Z,143.35
2019-03-24T05:11:05.250Z,139.70
2019-03-24T05:12:21.926Z,146.90
2019-03-24T05:13:37.490Z,144.07
2019-03-24T05:15:20.865Z,150.12
2019-03-24T05:16:45.324Z,150.32
2019-03-24T05:18:01.761Z,162.32
2019-03-24T05:19:18.217Z,165.80
2019-03-24T05:20:35.405Z,142.93
2019-03-24T05:21:51.741Z,162.65
2019-03-24T05:23:08.211Z,171.43
2019-03-24T05:24:24.526Z,188.65
2019-03-24T05:25:40.923Z,188.32
2019-03-24T05:26:57.780Z,171.05
2019-03-24T05:28:14.238Z,185.15
2019-03-24T05:29:30.484Z,187.90
2019-03-24T05:30:47.046Z,183.30
2019-03-24T05:32:04.031Z,173.10
2019-03-24T05:33:21.261Z,179.45
2019-03-24T05:34:38.460Z,175.30
2019-03-24T05:35:55.589Z,174.15
2019-03-24T05:37:12.221Z,173.57
2019-03-24T05:38:28.829Z,165.70
2019-03-24T05:39:45.252Z,162.35
2019-03-24T05:41:02.232Z,174.25
2019-03-24T05:42:18.815Z,163.95
2019-03-24T05:43:35.480Z,157.43
2019-03-24T05:44:52.590Z,153.35
2019-03-24T05:46:09.171Z,147.53
2019-03-24T05:47:25.521Z,126.38
2019-03-24T05:48:42.077Z,133.75
2019-03-24T05:50:00.331Z,129.93
2019-03-24T05:51:17.538Z,121.02
2019-03-24T05:52:34.096Z,108.75
2019-03-24T05:53:50.940Z,114.35
2019-03-24T05:55:07.300Z,99.92
2019-03-24T05:56:23.809Z,106.40
2019-03-24T05:57:40.778Z,103.22
2019-03-24T05:58:57.313Z,96.25
2019-03-24T06:00:13.861Z,96.30
2019-03-24T06:01:30.222Z,100.00
2019-03-24T06:02:46.736Z,98.92
2019-03-24T06:04:03.364Z,99.17
2019-03-24T06:05:19.757Z,100.75
2019-03-24T06:06:36.234Z,94.42
2019-03-24T06:07:52.628Z,90.67
2019-03-24T06:09:08.928Z,91.82
2019-03-24T06:10:25.402Z,94.67
2019-03-24T06:11:40.928Z,92.17
2019-03-24T06:13:05.370Z,86.82
2019-03-24T06:14:29.720Z,82.33
2019-03-24T06:15:48.063Z,86.42
2019-03-24T06:17:04.598Z,88.55
2019-03-24T06:18:21.020Z,86.65
2019-03-24T06:19:37.788Z,78.10
2019-03-24T06:20:54.209Z,76.17
2019-03-24T06:22:10.596Z,82.72
2019-03-24T06:23:27.598Z,84.85
2019-03-24T06:24:44.640Z,79.70
2019-03-24T06:26:01.035Z,79.12
2019-03-24T06:27:17.344Z,79.10
2019-03-24T06:28:33.930Z,79.85
2019-03-24T06:29:50.457Z,76.67
2019-03-24T06:31:07.011Z,73.10
2019-03-24T06:32:23.796Z,79.82
2019-03-24T06:33:40.361Z,76.77
2019-03-24T06:34:56.810Z,71.07
2019-03-24T06:36:13.506Z,81.15
2019-03-24T06:37:29.868Z,80.00
2019-03-24T06:38:46.676Z,71.37
2019-03-24T06:40:03.345Z,76.05
2019-03-24T06:41:18.951Z,74.53
2019-03-24T06:42:43.391Z,75.60
2019-03-24T06:43:59.945Z,73.15
2019-03-24T06:45:27.757Z,68.40
2019-03-24T06:46:35.213Z,70.17
2019-03-24T06:47:57.930Z,70.22
2019-03-24T06:49:14.643Z,75.78
2019-03-24T06:50:31.946Z,64.25
2019-03-24T06:51:48.586Z,66.42
2019-03-24T06:53:05.150Z,64.10
2019-03-24T06:54:20.707Z,66.05
2019-03-24T06:55:45.062Z,70.10
2019-03-24T06:57:01.904Z,66.90
2019-03-24T06:58:18.421Z,64.45
2019-03-24T06:59:35.412Z,70.45
2019-03-24T07:00:51.795Z,67.70
2019-03-24T07:02:08.464Z,72.37
2019-03-24T07:03:25.633Z,68.30
2019-03-24T07:04:42.024Z,72.58
2019-03-24T07:05:59.153Z,71.33
2019-03-24T07:07:15.937Z,70.25
2019-03-24T07:08:32.540Z,72.97
2019-03-24T07:09:48.911Z,74.15
2019-03-24T07:11:10.501Z,67.45
2019-03-24T07:12:23.303Z,75.90
2019-03-24T07:13:39.759Z,71.22
2019-03-24T07:14:56.157Z,71.15
2019-03-24T07:16:12.665Z,66.15
2019-03-24T07:17:29.405Z,70.60
2019-03-24T07:18:45.908Z,72.10
2019-03-24T07:20:02.849Z,69.00
2019-03-24T07:21:19.194Z,69.75
2019-03-24T07:22:35.714Z,66.92
2019-03-24T07:23:52.085Z,67.37
2019-03-24T07:25:08.594Z,65.28
2019-03-24T07:26:25.522Z,64.07
2019-03-24T07:27:42.029Z,69.05
2019-03-24T07:28:58.384Z,71.35
2019-03-24T07:30:14.760Z,67.37
2019-03-24T07:31:31.352Z,67.90
2019-03-24T07:32:47.761Z,62.43
2019-03-24T07:34:04.231Z,66.33
2019-03-24T07:35:20.766Z,62.50
2019-03-24T07:36:37.045Z,64.58
2019-03-24T07:37:54.456Z,64.15
2019-03-24T07:39:11.241Z,66.50
2019-03-24T07:40:28.429Z,61.33
2019-03-24T07:41:45.023Z,61.60
2019-03-24T07:43:01.333Z,64.70
2019-03-24T07:44:17.632Z,62.08
2019-03-24T07:45:33.973Z,65.12
2019-03-24T07:46:50.798Z,66.25
2019-03-24T07:48:07.061Z,64.65
2019-03-24T07:49:23.629Z,65.10
2019-03-24T07:50:39.857Z,71.65
2019-03-24T07:51:56.381Z,71.82
2019-03-24T07:53:13.640Z,67.12
2019-03-24T07:54:30.164Z,61.85
2019-03-24T07:55:47.391Z,67.47
2019-03-24T07:57:04.609Z,64.12
2019-03-24T07:58:21.101Z,59.67
2019-03-24T07:59:38.472Z,56.70
2019-03-24T08:00:53.964Z,65.62
2019-03-24T08:02:18.440Z,57.78
2019-03-24T08:03:35.420Z,54.13
2019-03-24T08:04:52.603Z,59.75
2019-03-24T08:06:09.174Z,56.50
2019-03-24T08:07:25.596Z,57.83
2019-03-24T08:08:44.502Z,60.55
2019-03-24T08:10:00.658Z,58.38
2019-03-24T08:11:17.190Z,55.23
2019-03-24T08:12:33.928Z,54.18
2019-03-24T08:13:53.902Z,58.30
2019-03-24T08:15:08.681Z,53.85
2019-03-24T08:16:24.082Z,57.00
2019-03-24T08:17:41.224Z,53.85
2019-03-24T08:18:57.701Z,58.65
2019-03-24T08:20:14.235Z,56.45
2019-03-24T08:21:30.840Z,54.70
2019-03-24T08:22:47.320Z,54.90
2019-03-24T08:24:02.875Z,55.52
2019-03-24T08:25:19.999Z,53.15
2019-03-24T08:26:37.073Z,54.38
2019-03-24T08:27:53.614Z,53.92
2019-03-24T08:29:09.890Z,52.80
2019-03-24T08:30:28.706Z,52.70
2019-03-24T08:31:44.806Z,57.53
2019-03-24T08:33:01.788Z,56.25
2019-03-24T08:34:18.571Z,53.85
2019-03-24T08:35:35.871Z,57.38
2019-03-24T08:36:52.293Z,52.85
2019-03-24T08:38:09.297Z,54.77
2019-03-24T08:39:25.960Z,49.45
2019-03-24T08:40:42.452Z,51.05
2019-03-24T08:41:59.682Z,56.18
2019-03-24T08:43:20.362Z,54.98
2019-03-24T08:44:36.994Z,57.80
2019-03-24T08:45:54.047Z,58.78
2019-03-24T08:47:10.713Z,58.05
2019-03-24T08:48:27.370Z,62.17
2019-03-24T08:49:43.818Z,54.95
2019-03-24T08:51:00.156Z,58.28
2019-03-24T08:52:17.346Z,56.95
2019-03-24T08:53:33.899Z,56.80
2019-03-24T08:54:50.296Z,62.95
2019-03-24T08:56:07.289Z,57.43
2019-03-24T08:57:23.966Z,56.10
2019-03-24T08:58:40.483Z,57.75
2019-03-24T08:59:56.895Z,54.53
2019-03-24T09:01:12.375Z,54.15
2019-03-24T09:02:36.729Z,56.02
2019-03-24T09:03:53.066Z,53.35
2019-03-24T09:05:10.019Z,54.85
2019-03-24T09:06:26.553Z,51.92
2019-03-24T09:07:43.077Z,53.90
2019-03-24T09:09:00.325Z,53.80
2019-03-24T09:10:16.921Z,51.73
2019-03-24T09:11:33.321Z,47.43
2019-03-24T09:12:49.803Z,52.88
2019-03-24T09:14:06.509Z,51.92
2019-03-24T09:15:22.889Z,53.35
2019-03-24T09:16:39.377Z,50.85
2019-03-24T09:17:56.543Z,50.10
2019-03-24T09:19:13.193Z,49.55
2019-03-24T09:20:29.571Z,50.23
2019-03-24T09:21:46.374Z,50.40
2019-03-24T09:23:02.952Z,56.13
2019-03-24T09:24:19.951Z,49.05
2019-03-24T09:25:36.292Z,50.40
2019-03-24T09:26:53.299Z,50.83
2019-03-24T09:28:09.872Z,49.55
2019-03-24T09:29:26.750Z,53.05
2019-03-24T09:30:43.638Z,51.23
2019-03-24T09:32:00.621Z,50.25
2019-03-24T09:33:17.042Z,45.25
2019-03-24T09:34:33.606Z,48.50
2019-03-24T09:35:50.256Z,47.90
2019-03-24T09:37:05.752Z,48.65
2019-03-24T09:38:30.177Z,47.43
2019-03-24T09:39:47.438Z,48.58
2019-03-24T09:41:04.254Z,48.25
2019-03-24T09:42:20.747Z,46.55
2019-03-24T09:43:37.063Z,47.13
2019-03-24T09:44:53.520Z,44.58
2019-03-24T09:46:09.967Z,48.68
2019-03-24T09:47:26.507Z,49.08
2019-03-24T09:48:42.764Z,51.98
2019-03-24T09:49:59.551Z,52.93
2019-03-24T09:51:15.964Z,51.28
2019-03-24T09:52:33.022Z,51.60
2019-03-24T09:53:49.563Z,49.77
2019-03-24T09:55:06.355Z,46.80
2019-03-24T09:56:22.669Z,50.48
2019-03-24T09:57:39.724Z,52.20
2019-03-24T09:58:57.165Z,54.00
2019-03-24T10:00:13.771Z,50.85
2019-03-24T10:01:30.514Z,51.88
2019-03-24T10:02:47.035Z,47.45
2019-03-24T10:04:03.861Z,52.45
2019-03-24T10:05:19.446Z,52.53
2019-03-24T10:06:43.851Z,53.17
2019-03-24T10:08:00.464Z,49.90
2019-03-24T10:09:16.799Z,52.35
2019-03-24T10:10:33.413Z,52.23
2019-03-24T10:11:50.129Z,52.35
2019-03-24T10:13:06.659Z,47.70
2019-03-24T10:14:24.793Z,51.48
2019-03-24T10:15:41.367Z,50.08
2019-03-24T10:16:57.797Z,55.38
2019-03-24T10:18:13.341Z,50.65
2019-03-24T10:19:56.708Z,50.73
2019-03-24T10:21:13.381Z,51.18
2019-03-24T10:22:30.609Z,52.53
2019-03-24T10:23:46.984Z,50.30
2019-03-24T10:25:03.534Z,54.48
2019-03-24T10:26:20.008Z,51.28
2019-03-24T10:27:36.377Z,47.50
2019-03-24T10:28:52.706Z,49.38
2019-03-24T10:30:09.822Z,54.80
2019-03-24T10:31:29.099Z,55.45
2019-03-24T10:32:45.410Z,55.58
2019-03-24T10:34:01.922Z,51.42
2019-03-24T10:35:19.410Z,51.85
2019-03-24T10:36:36.968Z,54.10
2019-03-24T10:37:54.273Z,55.03
2019-03-24T10:39:11.373Z,51.85
2019-03-24T10:40:29.170Z,56.05
2019-03-24T10:41:46.538Z,59.13
2019-03-24T10:43:02.955Z,56.05
2019-03-24T10:44:19.332Z,55.28
2019-03-24T10:45:36.598Z,54.10
2019-03-24T10:46:54.753Z,52.98
2019-03-24T10:48:12.279Z,54.35
2019-03-24T10:49:28.745Z,60.63
2019-03-24T10:50:44.335Z,57.27
2019-03-24T10:52:00.795Z,57.55
2019-03-24T10:53:17.708Z,53.83
2019-03-24T10:54:34.274Z,57.40
2019-03-24T10:55:50.622Z,55.73
2019-03-24T10:57:07.196Z,54.05
2019-03-24T10:58:23.660Z,57.10
2019-03-24T10:59:40.311Z,56.00
2019-03-24T11:00:56.897Z,55.00
2019-03-24T11:02:13.441Z,57.33
2019-03-24T11:03:30.551Z,59.48
2019-03-24T11:04:47.207Z,54.42
2019-03-24T11:06:03.770Z,57.15
2019-03-24T11:07:21.097Z,56.40
2019-03-24T11:08:37.505Z,56.42
2019-03-24T11:09:53.909Z,59.73
2019-03-24T11:11:10.308Z,54.90
2019-03-24T11:12:27.605Z,56.35
2019-03-24T11:13:44.691Z,55.80
2019-03-24T11:15:01.253Z,57.27
2019-03-24T11:16:18.501Z,60.95
2019-03-24T11:17:35.044Z,56.42
2019-03-24T11:18:52.357Z,59.85
2019-03-24T11:20:08.607Z,57.15
2019-03-24T11:21:25.117Z,57.15
2019-03-24T11:22:42.398Z,55.05
2019-03-24T11:23:58.018Z,55.30
2019-03-24T11:25:22.481Z,56.20
2019-03-24T11:26:44.225Z,53.52
2019-03-24T11:28:00.676Z,56.30
2019-03-24T11:29:17.079Z,57.38
2019-03-24T11:30:33.840Z,57.38
2019-03-24T11:31:51.108Z,56.33
2019-03-24T11:33:07.766Z,54.38
2019-03-24T11:34:24.970Z,55.43
2019-03-24T11:35:41.892Z,55.78
2019-03-24T11:36:58.589Z,60.03
2019-03-24T11:38:15.052Z,55.65
2019-03-24T11:39:31.590Z,54.13
2019-03-24T11:40:48.803Z,55.55
2019-03-24T11:42:06.055Z,64.05
2019-03-24T11:43:22.461Z,59.55
2019-03-24T11:44:39.733Z,57.48
2019-03-24T11:45:56.450Z,61.65
2019-03-24T11:47:13.227Z,55.58
2019-03-24T11:48:29.585Z,55.38
2019-03-24T11:49:48.945Z,56.63
2019-03-24T11:51:04.368Z,60.28
2019-03-24T11:52:21.479Z,56.55
2019-03-24T11:53:38.181Z,59.33
2019-03-24T11:54:54.805Z,59.03
2019-03-24T11:56:11.192Z,57.90
2019-03-24T11:57:26.663Z,62.15
2019-03-24T11:58:51.243Z,60.75
2019-03-24T12:00:07.771Z,65.67
2019-03-24T12:01:24.273Z,60.25
2019-03-24T12:02:40.794Z,60.23
2019-03-24T12:03:57.449Z,59.25
2019-03-24T12:05:13.870Z,59.27
2019-03-24T12:06:30.224Z,59.33
2019-03-24T12:07:47.122Z,58.95
2019-03-24T12:09:04.936Z,57.60
2019-03-24T12:10:21.487Z,60.43
2019-03-24T12:11:38.605Z,56.05
2019-03-24T12:12:55.581Z,56.05
2019-03-24T12:14:13.369Z,61.88
2019-03-24T12:15:29.705Z,55.63
2019-03-24T12:16:47.040Z,57.15
2019-03-24T12:18:03.499Z,57.20
2019-03-24T12:19:19.915Z,58.20
2019-03-24T12:20:37.609Z,62.62
2019-03-24T12:21:54.821Z,58.65
2019-03-24T12:23:11.526Z,58.25
2019-03-24T12:24:28.836Z,59.70
2019-03-24T12:25:48.206Z,55.17
2019-03-24T12:27:04.953Z,55.63
2019-03-24T12:28:21.749Z,58.80
2019-03-24T12:29:38.034Z,56.45
2019-03-24T12:30:54.534Z,61.13
2019-03-24T12:32:11.511Z,59.90
2019-03-24T12:33:27.978Z,57.70
2019-03-24T12:34:45.205Z,56.15
2019-03-24T12:36:01.600Z,54.83
2019-03-24T12:37:18.889Z,58.38
2019-03-24T12:38:36.078Z,61.98
2019-03-24T12:39:52.554Z,63.05
2019-03-24T12:41:09.013Z,53.55
2019-03-24T12:42:25.230Z,58.33
2019-03-24T12:43:41.761Z,53.55
2019-03-24T12:44:58.328Z,56.28
2019-03-24T12:46:15.008Z,55.05
2019-03-24T12:47:32.193Z,57.08
2019-03-24T12:48:49.006Z,58.38
2019-03-24T12:50:09.245Z,56.65
2019-03-24T12:51:25.526Z,56.25
2019-03-24T12:52:41.999Z,58.00
2019-03-24T12:53:59.290Z,53.83
2019-03-24T12:55:15.704Z,51.40
2019-03-24T12:56:32.922Z,52.35
2019-03-24T12:57:50.449Z,55.78
2019-03-24T12:59:07.791Z,57.38
2019-03-24T13:00:24.116Z,59.30
2019-03-24T13:01:40.530Z,51.75
2019-03-24T13:02:57.799Z,58.68
2019-03-24T13:04:14.329Z,49.35
2019-03-24T13:05:30.760Z,53.60
2019-03-24T13:06:47.228Z,51.00
2019-03-24T13:08:05.264Z,49.95
2019-03-24T13:09:22.123Z,50.92
2019-03-24T13:10:39.046Z,50.50
2019-03-24T13:11:55.577Z,49.50
2019-03-24T13:13:12.157Z,50.03
2019-03-24T13:14:30.656Z,49.13
2019-03-24T13:15:46.972Z,51.02
2019-03-24T13:17:03.247Z,50.35
2019-03-24T13:18:19.753Z,51.68
2019-03-24T13:19:37.011Z,49.55
2019-03-24T13:20:53.508Z,46.63
2019-03-24T13:22:11.685Z,51.60
2019-03-24T13:23:28.912Z,53.70
2019-03-24T13:24:45.394Z,50.10
2019-03-24T13:26:01.784Z,50.23
2019-03-24T13:27:19.021Z,49.38
2019-03-24T13:28:35.794Z,49.13
2019-03-24T13:29:52.175Z,52.78
2019-03-24T13:31:08.915Z,56.23
2019-03-24T13:32:25.205Z,51.55
2019-03-24T13:33:41.818Z,52.88
2019-03-24T13:35:00.333Z,56.55
2019-03-24T13:36:24.813Z,54.70
2019-03-24T13:37:41.439Z,52.23
2019-03-24T13:38:58.360Z,51.28
2019-03-24T13:40:14.630Z,51.18
2019-03-24T13:41:31.037Z,49.00
2019-03-24T13:42:47.617Z,52.93
2019-03-24T13:44:04.248Z,49.03
2019-03-24T13:45:21.005Z,52.27
2019-03-24T13:46:37.609Z,52.40
2019-03-24T13:47:53.934Z,50.60
2019-03-24T13:49:11.053Z,51.35
2019-03-24T13:50:31.778Z,51.63
2019-03-24T13:51:46.751Z,48.70
2019-03-24T13:53:03.192Z,50.95
2019-03-24T13:54:18.731Z,50.15
2019-03-24T13:55:43.133Z,51.88
2019-03-24T13:56:59.569Z,50.98
2019-03-24T13:58:16.094Z,50.15
2019-03-24T13:59:32.662Z,49.38
2019-03-24T14:00:49.357Z,48.65
2019-03-24T14:02:06.369Z,48.92
2019-03-24T14:03:22.652Z,53.08
2019-03-24T14:04:39.003Z,50.90
2019-03-24T14:05:55.865Z,52.13
2019-03-24T14:07:12.699Z,54.15
2019-03-24T14:08:29.718Z,53.10
2019-03-24T14:09:46.258Z,52.13
2019-03-24T14:11:03.273Z,53.15
2019-03-24T14:12:19.976Z,55.28
2019-03-24T14:13:36.327Z,51.10
2019-03-24T14:14:53.007Z,51.20
2019-03-24T14:16:09.367Z,50.88
2019-03-24T14:17:25.911Z,55.35
2019-03-24T14:18:42.508Z,53.95
2019-03-24T14:20:00.837Z,53.78
2019-03-24T14:21:17.489Z,51.77
2019-03-24T14:22:34.098Z,51.80
2019-03-24T14:23:51.210Z,53.28
2019-03-24T14:25:07.823Z,51.02
2019-03-24T14:26:24.961Z,53.70
2019-03-24T14:27:41.586Z,51.73
2019-03-24T14:28:58.841Z,51.60
2019-03-24T14:30:15.264Z,51.75
2019-03-24T14:31:30.720Z,49.80
2019-03-24T14:32:55.141Z,50.17
2019-03-24T14:34:11.393Z,49.45
2019-03-24T14:35:27.933Z,53.78
2019-03-24T14:36:44.368Z,51.70
2019-03-24T14:38:00.716Z,50.67
2019-03-24T14:39:17.002Z,52.90
2019-03-24T14:40:33.445Z,53.45
2019-03-24T14:41:50.013Z,51.80
2019-03-24T14:43:07.252Z,54.38
2019-03-24T14:44:24.517Z,52.67
2019-03-24T14:45:41.306Z,51.58
2019-03-24T14:46:58.082Z,52.67
2019-03-24T14:48:14.517Z,53.65
2019-03-24T14:49:30.954Z,49.90
2019-03-24T14:50:54.337Z,52.55
2019-03-24T14:52:05.758Z,49.05
2019-03-24T14:53:22.204Z,54.53
2019-03-24T14:54:39.752Z,51.60
2019-03-24T14:55:56.628Z,52.17
2019-03-24T14:57:13.858Z,53.55
2019-03-24T14:58:29.359Z,53.35
2019-03-24T14:59:46.501Z,50.10
2019-03-24T15:01:03.498Z,52.75
2019-03-24T15:02:20.488Z,55.33
2019-03-24T15:03:37.733Z,53.28
2019-03-24T15:04:54.925Z,52.93
2019-03-24T15:06:11.354Z,52.73
2019-03-24T15:07:28.681Z,51.90
2019-03-24T15:08:45.229Z,54.93
2019-03-24T15:10:01.854Z,51.60
2019-03-24T15:11:19.900Z,51.90
2019-03-24T15:12:37.001Z,49.98
2019-03-24T15:13:53.413Z,54.03
2019-03-24T15:15:10.568Z,51.02
2019-03-24T15:16:27.126Z,52.00
2019-03-24T15:17:43.733Z,52.73
2019-03-24T15:19:00.849Z,52.00
2019-03-24T15:20:17.303Z,52.83
2019-03-24T15:21:33.891Z,49.85
2019-03-24T15:22:50.526Z,52.30
2019-03-24T15:24:07.462Z,52.33
2019-03-24T15:25:22.955Z,53.33
2019-03-24T15:28:24.008Z,51.40
2019-03-24T15:29:40.893Z,53.45
2019-03-24T15:30:57.407Z,54.67
2019-03-24T15:32:14.601Z,57.00
2019-03-24T15:33:31.115Z,55.05
2019-03-24T15:34:48.172Z,51.33
2019-03-24T15:36:04.612Z,51.98
2019-03-24T15:37:21.840Z,52.73
2019-03-24T15:38:38.406Z,51.35
2019-03-24T15:39:55.688Z,55.70
2019-03-24T15:41:12.260Z,55.20
2019-03-24T15:42:29.407Z,51.98
2019-03-24T15:43:46.534Z,51.53
2019-03-24T15:45:03.561Z,53.42
2019-03-24T15:46:20.168Z,51.58
2019-03-24T15:47:36.699Z,53.08
2019-03-24T15:48:53.048Z,52.60
2019-03-24T15:50:10.086Z,55.00
2019-03-24T15:51:26.653Z,53.08
2019-03-24T15:52:43.037Z,49.70
2019-03-24T15:54:00.189Z,52.98
2019-03-24T15:55:16.635Z,53.45
2019-03-24T15:56:33.932Z,53.95
2019-03-24T15:57:50.520Z,52.58
2019-03-24T15:59:07.291Z,55.73
2019-03-24T16:00:24.313Z,49.65
2019-03-24T16:01:40.905Z,56.65
2019-03-24T16:02:57.272Z,51.75
2019-03-24T16:04:14.382Z,55.08
2019-03-24T16:05:33.541Z,51.37
2019-03-24T16:06:49.981Z,50.92
2019-03-24T16:08:06.853Z,48.50
2019-03-24T16:09:23.300Z,51.90
2019-03-24T16:10:40.080Z,46.63
2019-03-24T16:11:56.813Z,49.53
2019-03-24T16:13:13.338Z,50.85
2019-03-24T16:14:29.919Z,49.25
2019-03-24T16:15:46.501Z,50.00
2019-03-24T16:17:02.974Z,49.27
2019-03-24T16:18:19.924Z,48.40
2019-03-24T16:19:36.421Z,51.73
2019-03-24T16:20:52.901Z,51.83
2019-03-24T16:22:10.118Z,46.23
2019-03-24T16:23:26.671Z,47.45